createdAt,value
2023-04-11T00:00:19.583Z,0.00
2023-04-11T00:01:19.574Z,0.00
2023-04-11T00:02:19.645Z,0.00
2023-04-11T00:03:19.668Z,0.00
2023-04-11T00:04:19.622Z,0.00
2023-04-11T00:05:19.543Z,0.00
2023-04-11T00:06:19.541Z,0.00
2023-04-11T00:07:19.528Z,0.00
2023-04-11T00:08:19.520Z,0.00
2023-04-11T00:09:19.543Z,0.00
2023-04-11T00:10:19.509Z,0.00
2023-04-11T00:11:19.516Z,0.00
2023-04-11T00:12:19.490Z,0.00
2023-04-11T00:13:19.477Z,0.00
2023-04-11T00:14:19.498Z,0.00
2023-04-11T00:15:19.461Z,0.00
2023-04-11T00:16:19.502Z,0.00
2023-04-11T00:17:19.477Z,0.00
2023-04-11T00:18:19.452Z,0.00
2023-04-11T00:19:19.464Z,0.00
2023-04-11T00:20:19.429Z,0.00
2023-04-11T00:21:19.421Z,0.00
2023-04-11T00:22:19.395Z,0.00
2023-04-11T00:23:19.395Z,0.00
2023-04-11T00:24:19.417Z,0.00
2023-04-11T00:25:19.388Z,0.00
2023-04-11T00:26:19.377Z,0.00
2023-04-11T00:27:21.817Z,0.00
2023-04-11T00:28:20.354Z,0.00
2023-04-11T00:29:19.378Z,0.00
2023-04-11T00:30:19.343Z,0.00
2023-04-11T00:31:19.365Z,0.00
2023-04-11T00:32:19.323Z,0.00
2023-04-11T00:33:19.321Z,0.00
2023-04-11T00:34:19.332Z,0.00
2023-04-11T00:35:19.316Z,0.00
2023-04-11T00:36:19.372Z,0.00
2023-04-11T00:37:19.286Z,0.00
2023-04-11T00:38:19.285Z,0.00
2023-04-11T00:39:19.302Z,0.00
2023-04-11T00:40:19.273Z,0.00
2023-04-11T00:41:19.258Z,0.00
2023-04-11T00:42:19.248Z,0.00
2023-04-11T00:43:19.244Z,0.00
2023-04-11T00:44:19.260Z,0.00
2023-04-11T00:45:19.227Z,0.00
2023-04-11T00:46:19.246Z,0.00
2023-04-11T00:47:19.263Z,0.00
2023-04-11T00:48:19.206Z,0.00
2023-04-11T00:49:19.228Z,0.00
2023-04-11T00:50:19.184Z,0.00
2023-04-11T00:51:19.180Z,0.00
2023-04-11T00:52:19.180Z,0.00
2023-04-11T00:53:19.178Z,0.00
2023-04-11T00:54:19.160Z,0.00
2023-04-11T00:55:19.179Z,0.00
2023-04-11T00:56:19.149Z,0.00
2023-04-11T00:57:19.137Z,0.00
2023-04-11T00:58:19.128Z,0.00
2023-04-11T00:59:19.115Z,0.00
2023-04-11T01:00:19.149Z,0.00
2023-04-11T01:01:19.153Z,0.00
2023-04-11T01:02:19.315Z,0.00
2023-04-11T01:03:19.338Z,0.00
2023-04-11T01:04:19.110Z,0.00
2023-04-11T01:05:19.128Z,0.00
2023-04-11T01:06:19.077Z,0.00
2023-04-11T01:07:19.059Z,0.00
2023-04-11T01:08:19.044Z,0.00
2023-04-11T01:09:19.032Z,0.00
2023-04-11T01:10:19.058Z,0.00
2023-04-11T01:11:19.022Z,0.00
2023-04-11T01:12:19.014Z,0.00
2023-04-11T01:13:19.011Z,0.00
2023-04-11T01:14:19.025Z,0.00
2023-04-11T01:15:19.024Z,0.00
2023-04-11T01:16:19.006Z,0.00
2023-04-11T01:17:18.981Z,0.00
2023-04-11T01:18:18.969Z,0.00
2023-04-11T01:19:18.974Z,0.00
2023-04-11T01:20:18.985Z,0.00
2023-04-11T01:21:18.953Z,0.00
2023-04-11T01:22:18.954Z,0.00
2023-04-11T01:23:18.937Z,0.00
2023-04-11T01:24:18.919Z,0.00
2023-04-11T01:25:18.961Z,0.00
2023-04-11T01:26:18.911Z,0.00
2023-04-11T01:27:18.902Z,0.00
2023-04-11T01:28:18.896Z,0.00
2023-04-11T01:29:18.893Z,0.00
2023-04-11T01:30:18.904Z,0.00
2023-04-11T01:31:18.950Z,0.00
2023-04-11T01:32:18.863Z,0.00
2023-04-11T01:33:18.857Z,0.00
2023-04-11T01:34:18.844Z,0.00
2023-04-11T01:35:18.869Z,0.00
2023-04-11T01:36:18.833Z,0.00
2023-04-11T01:37:18.830Z,0.00
2023-04-11T01:38:18.825Z,0.00
2023-04-11T01:39:18.816Z,0.00
2023-04-11T01:40:18.847Z,0.00
2023-04-11T01:41:18.787Z,0.00
2023-04-11T01:42:18.796Z,0.00
2023-04-11T01:43:18.778Z,0.00
2023-04-11T01:44:18.771Z,0.00
2023-04-11T01:45:18.789Z,0.00
2023-04-11T01:46:18.765Z,0.00
2023-04-11T01:47:18.756Z,0.00
2023-04-11T01:48:18.807Z,0.00
2023-04-11T01:49:18.743Z,0.00
2023-04-11T01:50:18.762Z,0.00
2023-04-11T01:51:18.722Z,0.00
2023-04-11T01:52:18.709Z,0.00
2023-04-11T01:53:18.712Z,0.00
2023-04-11T01:54:18.697Z,0.00
2023-04-11T01:55:18.708Z,0.00
2023-04-11T01:56:18.712Z,0.00
2023-04-11T01:57:18.668Z,0.00
2023-04-11T01:58:18.666Z,0.00
2023-04-11T01:59:18.655Z,0.00
2023-04-11T02:00:18.686Z,0.00
2023-04-11T02:01:18.684Z,0.00
2023-04-11T02:02:18.784Z,0.00
2023-04-11T02:03:18.814Z,0.00
2023-04-11T02:04:18.834Z,0.00
2023-04-11T02:05:18.635Z,0.00
2023-04-11T02:06:18.613Z,0.00
2023-04-11T02:07:18.609Z,0.00
2023-04-11T02:08:18.598Z,0.00
2023-04-11T02:09:18.594Z,0.00
2023-04-11T02:10:18.612Z,0.00
2023-04-11T02:11:18.573Z,0.00
2023-04-11T02:12:18.566Z,0.00
2023-04-11T02:13:18.553Z,0.00
2023-04-11T02:14:18.553Z,0.00
2023-04-11T02:15:18.570Z,0.00
2023-04-11T02:16:18.633Z,0.00
2023-04-11T02:17:18.565Z,0.00
2023-04-11T02:18:18.516Z,0.00
2023-04-11T02:19:18.510Z,0.00
2023-04-11T02:20:18.540Z,0.00
2023-04-11T02:21:18.490Z,0.00
2023-04-11T02:22:18.494Z,0.00
2023-04-11T02:23:18.481Z,0.00
2023-04-11T02:24:18.471Z,0.00
2023-04-11T02:25:18.490Z,0.00
2023-04-11T02:26:18.454Z,0.00
2023-04-11T02:27:18.457Z,0.00
2023-04-11T02:28:18.441Z,0.00
2023-04-11T02:29:18.436Z,0.00
2023-04-11T02:30:18.725Z,0.00
2023-04-11T02:31:18.463Z,0.00
2023-04-11T02:32:18.428Z,0.00
2023-04-11T02:33:18.403Z,0.00
2023-04-11T02:34:18.391Z,0.00
2023-04-11T02:35:18.420Z,0.00
2023-04-11T02:36:18.376Z,0.00
2023-04-11T02:37:19.373Z,0.00
2023-04-11T02:38:18.364Z,0.00
2023-04-11T02:39:18.358Z,0.00
2023-04-11T02:40:18.385Z,0.00
2023-04-11T02:41:18.346Z,0.00
2023-04-11T02:42:18.332Z,0.00
2023-04-11T02:43:18.323Z,0.00
2023-04-11T02:44:18.312Z,0.00
2023-04-11T02:45:18.331Z,0.00
2023-04-11T02:46:18.342Z,0.00
2023-04-11T02:47:18.310Z,0.00
2023-04-11T02:48:18.291Z,0.00
2023-04-11T02:49:18.280Z,0.00
2023-04-11T02:50:18.302Z,0.00
2023-04-11T02:51:18.269Z,0.00
2023-04-11T02:52:18.254Z,0.00
2023-04-11T02:53:18.244Z,0.00
2023-04-11T02:54:18.244Z,0.00
2023-04-11T02:55:18.247Z,0.00
2023-04-11T02:56:18.227Z,0.00
2023-04-11T02:57:18.227Z,0.00
2023-04-11T02:58:18.324Z,0.00
2023-04-11T02:59:18.193Z,0.00
2023-04-11T03:00:18.211Z,0.00
2023-04-11T03:01:18.252Z,0.00
2023-04-11T03:02:18.339Z,0.00
2023-04-11T03:03:18.233Z,0.00
2023-04-11T03:04:18.253Z,0.00
2023-04-11T03:05:18.197Z,0.00
2023-04-11T03:06:18.138Z,0.00
2023-04-11T03:07:18.129Z,0.00
2023-04-11T03:08:18.128Z,0.00
2023-04-11T03:09:18.121Z,0.00
2023-04-11T03:10:18.146Z,0.00
2023-04-11T03:11:19.108Z,0.00
2023-04-11T03:12:18.096Z,0.00
2023-04-11T03:13:18.095Z,0.00
2023-04-11T03:14:18.077Z,0.00
2023-04-11T03:15:18.103Z,0.00
2023-04-11T03:16:18.076Z,0.00
2023-04-11T03:17:18.051Z,0.00
2023-04-11T03:18:19.052Z,0.00
2023-04-11T03:19:18.037Z,0.00
2023-04-11T03:20:18.061Z,0.00
2023-04-11T03:21:18.027Z,0.00
2023-04-11T03:22:18.021Z,0.00
2023-04-11T03:23:18.013Z,0.00
2023-04-11T03:24:18.014Z,0.00
2023-04-11T03:25:18.039Z,0.00
2023-04-11T03:26:17.992Z,0.00
2023-04-11T03:27:17.985Z,0.00
2023-04-11T03:28:17.977Z,0.00
2023-04-11T03:29:17.963Z,0.00
2023-04-11T03:30:17.982Z,0.00
2023-04-11T03:31:17.991Z,0.00
2023-04-11T03:32:17.948Z,0.00
2023-04-11T03:33:17.937Z,0.00
2023-04-11T03:34:17.945Z,0.00
2023-04-11T03:35:17.922Z,0.00
2023-04-11T03:36:17.979Z,0.00
2023-04-11T03:37:17.907Z,0.00
2023-04-11T03:38:17.901Z,0.00
2023-04-11T03:39:17.898Z,0.00
2023-04-11T03:40:17.886Z,0.00
2023-04-11T03:41:17.897Z,0.00
2023-04-11T03:42:17.867Z,0.00
2023-04-11T03:43:17.863Z,0.00
2023-04-11T03:44:17.869Z,0.00
2023-04-11T03:45:17.864Z,0.00
2023-04-11T03:46:17.880Z,0.00
2023-04-11T03:47:17.830Z,0.00
2023-04-11T03:48:19.554Z,0.00
2023-04-11T03:49:17.815Z,0.00
2023-04-11T03:50:17.808Z,0.00
2023-04-11T03:51:17.849Z,0.00
2023-04-11T03:52:17.791Z,0.00
2023-04-11T03:53:17.795Z,0.00
2023-04-11T03:54:17.781Z,0.00
2023-04-11T03:55:17.799Z,0.00
2023-04-11T03:56:17.797Z,0.00
2023-04-11T03:57:17.756Z,0.00
2023-04-11T03:58:17.747Z,0.00
2023-04-11T03:59:17.748Z,0.00
2023-04-11T04:00:17.734Z,0.00
2023-04-11T04:01:17.755Z,0.00
2023-04-11T04:02:17.775Z,0.00
2023-04-11T04:03:17.898Z,0.00
2023-04-11T04:04:17.769Z,0.00
2023-04-11T04:05:17.690Z,0.00
2023-04-11T04:06:17.711Z,0.00
2023-04-11T04:07:17.676Z,0.00
2023-04-11T04:08:17.664Z,0.00
2023-04-11T04:09:17.663Z,0.00
2023-04-11T04:10:17.654Z,0.00
2023-04-11T04:11:17.679Z,0.00
2023-04-11T04:12:17.640Z,0.00
2023-04-11T04:13:17.639Z,0.00
2023-04-11T04:14:17.670Z,0.00
2023-04-11T04:15:17.620Z,0.00
2023-04-11T04:16:17.722Z,0.00
2023-04-11T04:17:17.607Z,0.00
2023-04-11T04:18:17.601Z,0.00
2023-04-11T04:19:17.596Z,0.00
2023-04-11T04:20:17.579Z,0.00
2023-04-11T04:21:17.598Z,0.00
2023-04-11T04:22:17.656Z,0.00
2023-04-11T04:23:17.567Z,0.00
2023-04-11T04:24:17.549Z,0.00
2023-04-11T04:25:17.543Z,0.00
2023-04-11T04:26:17.568Z,0.00
2023-04-11T04:27:17.526Z,0.00
2023-04-11T04:28:17.525Z,0.00
2023-04-11T04:29:17.520Z,0.00
2023-04-11T04:30:17.504Z,0.00
2023-04-11T04:31:17.545Z,0.00
2023-04-11T04:32:17.493Z,0.00
2023-04-11T04:33:17.482Z,0.00
2023-04-11T04:34:17.471Z,0.00
2023-04-11T04:35:17.465Z,0.00
2023-04-11T04:36:17.479Z,0.00
2023-04-11T04:37:17.445Z,0.00
2023-04-11T04:38:17.518Z,0.00
2023-04-11T04:39:17.444Z,0.00
2023-04-11T04:40:17.418Z,0.00
2023-04-11T04:41:17.442Z,0.00
2023-04-11T04:42:17.408Z,0.00
2023-04-11T04:43:17.404Z,5.62
2023-04-11T04:44:17.468Z,5.62
2023-04-11T04:45:17.393Z,5.62
2023-04-11T04:46:17.447Z,5.62
2023-04-11T04:47:17.371Z,5.62
2023-04-11T04:48:17.392Z,5.62
2023-04-11T04:49:17.352Z,5.62
2023-04-11T04:50:17.350Z,11.25
2023-04-11T04:51:17.431Z,11.25
2023-04-11T04:52:17.332Z,11.25
2023-04-11T04:53:17.324Z,11.25
2023-04-11T04:54:17.308Z,11.25
2023-04-11T04:55:17.303Z,11.25
2023-04-11T04:56:17.317Z,16.88
2023-04-11T04:57:18.296Z,16.88
2023-04-11T04:58:17.291Z,16.88
2023-04-11T04:59:17.270Z,22.50
2023-04-11T05:00:17.270Z,22.50
2023-04-11T05:01:17.364Z,22.50
2023-04-11T05:02:17.392Z,28.12
2023-04-11T05:03:17.343Z,28.12
2023-04-11T05:04:17.301Z,28.12
2023-04-11T05:05:17.245Z,28.12
2023-04-11T05:06:18.798Z,33.75
2023-04-11T05:07:17.217Z,33.75
2023-04-11T05:08:17.218Z,33.75
2023-04-11T05:09:17.206Z,33.75
2023-04-11T05:10:17.188Z,33.75
2023-04-11T05:11:17.232Z,33.75
2023-04-11T05:12:17.182Z,33.75
2023-04-11T05:13:17.162Z,33.75
2023-04-11T05:14:17.162Z,39.38
2023-04-11T05:15:17.153Z,39.38
2023-04-11T05:16:17.180Z,45.00
2023-04-11T05:17:17.130Z,50.62
2023-04-11T05:18:17.137Z,56.25
2023-04-11T05:19:17.120Z,61.88
2023-04-11T05:20:17.122Z,67.50
2023-04-11T05:21:17.133Z,78.75
2023-04-11T05:22:17.095Z,90.00
2023-04-11T05:23:17.091Z,95.62
2023-04-11T05:24:17.085Z,101.25
2023-04-11T05:25:17.077Z,106.88
2023-04-11T05:26:17.092Z,112.50
2023-04-11T05:27:17.057Z,118.12
2023-04-11T05:28:17.064Z,118.12
2023-04-11T05:29:17.042Z,123.75
2023-04-11T05:30:17.053Z,135.00
2023-04-11T05:31:17.139Z,146.25
2023-04-11T05:32:17.020Z,146.25
2023-04-11T05:33:17.010Z,151.88
2023-04-11T05:34:17.002Z,157.50
2023-04-11T05:35:16.998Z,163.12
2023-04-11T05:36:17.037Z,163.12
2023-04-11T05:37:16.985Z,168.75
2023-04-11T05:38:16.973Z,180.00
2023-04-11T05:39:16.966Z,196.88
2023-04-11T05:40:16.965Z,219.38
2023-04-11T05:41:16.986Z,230.62
2023-04-11T05:42:16.945Z,236.25
2023-04-11T05:43:16.933Z,371.25
2023-04-11T05:44:16.928Z,635.62
2023-04-11T05:45:16.922Z,365.62
2023-04-11T05:46:16.986Z,348.75
2023-04-11T05:47:16.905Z,399.38
2023-04-11T05:48:16.898Z,1226.25
2023-04-11T05:49:16.908Z,843.75
2023-04-11T05:50:16.886Z,686.25
2023-04-11T05:51:16.905Z,1631.25
2023-04-11T05:52:16.885Z,630.00
2023-04-11T05:53:16.873Z,534.38
2023-04-11T05:54:16.859Z,410.62
2023-04-11T05:55:16.850Z,337.50
2023-04-11T05:56:16.870Z,348.75
2023-04-11T05:57:16.831Z,348.75
2023-04-11T05:58:16.819Z,343.12
2023-04-11T05:59:18.100Z,360.00
2023-04-11T06:00:16.825Z,2205.00
2023-04-11T06:01:16.821Z,2351.25
2023-04-11T06:02:16.925Z,2362.50
2023-04-11T06:03:16.903Z,2413.12
2023-04-11T06:04:17.012Z,2385.00
2023-04-11T06:05:16.817Z,2486.25
2023-04-11T06:06:16.880Z,2610.00
2023-04-11T06:07:16.750Z,2514.38
2023-04-11T06:08:16.738Z,1636.88
2023-04-11T06:09:16.732Z,2767.50
2023-04-11T06:10:16.722Z,2655.00
2023-04-11T06:11:16.741Z,2565.00
2023-04-11T06:12:16.708Z,2536.88
2023-04-11T06:13:16.699Z,2671.88
2023-04-11T06:14:16.718Z,2356.88
2023-04-11T06:15:16.692Z,2761.88
2023-04-11T06:16:16.744Z,2671.88
2023-04-11T06:17:16.676Z,2716.88
2023-04-11T06:18:16.657Z,2705.62
2023-04-11T06:19:16.699Z,2700.00
2023-04-11T06:20:16.663Z,2705.62
2023-04-11T06:21:16.663Z,2660.62
2023-04-11T06:22:16.633Z,2671.88
2023-04-11T06:23:16.626Z,2795.62
2023-04-11T06:24:16.612Z,2851.88
2023-04-11T06:25:16.609Z,2835.00
2023-04-11T06:26:16.600Z,2840.62
2023-04-11T06:27:16.637Z,2880.00
2023-04-11T06:28:16.597Z,2919.38
2023-04-11T06:29:16.573Z,2981.25
2023-04-11T06:30:16.566Z,3065.62
2023-04-11T06:31:16.600Z,3127.50
2023-04-11T06:32:16.740Z,1771.88
2023-04-11T06:33:16.552Z,3245.62
2023-04-11T06:34:16.555Z,2103.75
2023-04-11T06:35:16.540Z,1338.75
2023-04-11T06:36:16.535Z,1783.12
2023-04-11T06:37:16.548Z,1653.75
2023-04-11T06:38:16.517Z,3099.38
2023-04-11T06:39:16.532Z,1001.25
2023-04-11T06:40:16.498Z,2446.88
2023-04-11T06:41:16.492Z,2953.12
2023-04-11T06:42:16.485Z,2424.38
2023-04-11T06:43:16.489Z,1158.75
2023-04-11T06:44:16.526Z,1996.88
2023-04-11T06:45:16.480Z,2610.00
2023-04-11T06:46:16.480Z,2739.38
2023-04-11T06:47:16.461Z,2514.38
2023-04-11T06:48:16.446Z,3110.62
2023-04-11T06:49:16.456Z,3262.50
2023-04-11T06:50:16.433Z,3268.12
2023-04-11T06:51:16.431Z,2947.50
2023-04-11T06:52:16.413Z,3251.25
2023-04-11T06:53:16.407Z,3268.12
2023-04-11T06:54:16.424Z,3093.75
2023-04-11T06:55:16.395Z,2407.50
2023-04-11T06:56:16.380Z,3352.50
2023-04-11T06:57:16.374Z,2638.12
2023-04-11T06:58:16.365Z,3273.75
2023-04-11T06:59:16.394Z,3285.00
2023-04-11T07:00:16.355Z,3285.00
2023-04-11T07:01:16.381Z,3296.25
2023-04-11T07:02:16.425Z,2587.50
2023-04-11T07:03:16.438Z,3352.50
2023-04-11T07:04:16.487Z,3386.25
2023-04-11T07:05:16.318Z,3341.25
2023-04-11T07:06:16.378Z,3425.62
2023-04-11T07:07:16.311Z,3425.62
2023-04-11T07:08:16.296Z,3453.75
2023-04-11T07:09:16.286Z,3459.38
2023-04-11T07:10:16.288Z,3375.00
2023-04-11T07:11:16.690Z,1417.50
2023-04-11T07:12:16.265Z,1327.50
2023-04-11T07:13:16.260Z,1434.38
2023-04-11T07:14:16.256Z,1203.75
2023-04-11T07:15:16.244Z,1029.38
2023-04-11T07:16:16.354Z,753.75
2023-04-11T07:17:16.228Z,573.75
2023-04-11T07:18:16.216Z,472.50
2023-04-11T07:19:16.211Z,421.88
2023-04-11T07:20:16.201Z,416.25
2023-04-11T07:21:16.227Z,433.12
2023-04-11T07:22:16.195Z,483.75
2023-04-11T07:23:16.178Z,495.00
2023-04-11T07:24:16.176Z,506.25
2023-04-11T07:25:16.166Z,540.00
2023-04-11T07:26:16.164Z,562.50
2023-04-11T07:27:16.177Z,2019.38
2023-04-11T07:28:16.152Z,523.12
2023-04-11T07:29:16.134Z,776.25
2023-04-11T07:30:16.127Z,2013.75
2023-04-11T07:31:16.201Z,2902.50
2023-04-11T07:32:16.111Z,804.38
2023-04-11T07:33:16.104Z,556.88
2023-04-11T07:34:16.099Z,551.25
2023-04-11T07:35:16.089Z,596.25
2023-04-11T07:36:16.153Z,3526.88
2023-04-11T07:37:16.103Z,939.38
2023-04-11T07:38:16.071Z,641.25
2023-04-11T07:39:16.068Z,528.75
2023-04-11T07:40:16.059Z,455.62
2023-04-11T07:41:16.044Z,393.75
2023-04-11T07:42:16.060Z,421.88
2023-04-11T07:43:16.032Z,540.00
2023-04-11T07:44:16.026Z,770.62
2023-04-11T07:45:16.036Z,916.88
2023-04-11T07:46:16.037Z,3223.12
2023-04-11T07:47:16.023Z,613.12
2023-04-11T07:48:15.995Z,540.00
2023-04-11T07:49:15.988Z,478.12
2023-04-11T07:50:15.990Z,365.62
2023-04-11T07:51:15.967Z,258.75
2023-04-11T07:52:15.980Z,168.75
2023-04-11T07:53:15.947Z,118.12
2023-04-11T07:54:15.947Z,101.25
2023-04-11T07:55:15.935Z,90.00
2023-04-11T07:56:15.932Z,90.00
2023-04-11T07:57:15.973Z,90.00
2023-04-11T07:58:15.904Z,78.75
2023-04-11T07:59:16.054Z,67.50
2023-04-11T08:00:15.893Z,56.25
2023-04-11T08:01:15.884Z,50.62
2023-04-11T08:02:16.001Z,50.62
2023-04-11T08:03:15.991Z,56.25
2023-04-11T08:04:15.955Z,67.50
2023-04-11T08:05:15.864Z,73.12
2023-04-11T08:06:15.839Z,67.50
2023-04-11T08:07:15.859Z,61.88
2023-04-11T08:08:15.837Z,61.88
2023-04-11T08:09:15.816Z,56.25
2023-04-11T08:10:15.807Z,50.62
2023-04-11T08:11:15.803Z,50.62
2023-04-11T08:12:15.818Z,56.25
2023-04-11T08:13:15.789Z,56.25
2023-04-11T08:14:15.772Z,56.25
2023-04-11T08:15:15.765Z,67.50
2023-04-11T08:16:15.826Z,95.62
2023-04-11T08:17:27.076Z,118.12
2023-04-11T08:18:17.795Z,135.00
2023-04-11T08:19:15.755Z,163.12
2023-04-11T08:20:15.737Z,208.12
2023-04-11T08:21:15.734Z,247.50
2023-04-11T08:22:15.922Z,315.00
2023-04-11T08:23:15.720Z,360.00
2023-04-11T08:24:15.705Z,450.00
2023-04-11T08:25:15.706Z,1546.88
2023-04-11T08:26:15.684Z,1316.25
2023-04-11T08:27:15.704Z,669.38
2023-04-11T08:28:15.667Z,646.88
2023-04-11T08:29:15.672Z,652.50
2023-04-11T08:30:15.657Z,568.12
2023-04-11T08:31:15.717Z,540.00
2023-04-11T08:32:15.666Z,1468.12
2023-04-11T08:33:15.633Z,798.75
2023-04-11T08:34:15.629Z,1738.12
2023-04-11T08:35:15.705Z,1788.75
2023-04-11T08:36:15.651Z,1935.00
2023-04-11T08:37:15.657Z,928.12
2023-04-11T08:38:15.599Z,1265.62
2023-04-11T08:39:15.596Z,1558.12
2023-04-11T08:40:15.577Z,2098.12
2023-04-11T08:41:15.579Z,2126.25
2023-04-11T08:42:15.588Z,860.62
2023-04-11T08:43:15.560Z,748.12
2023-04-11T08:44:15.550Z,945.00
2023-04-11T08:45:15.549Z,1558.12
2023-04-11T08:46:15.558Z,1597.50
2023-04-11T08:47:15.550Z,2233.12
2023-04-11T08:48:15.519Z,1614.38
2023-04-11T08:49:15.494Z,956.25
2023-04-11T08:50:16.690Z,2103.75
2023-04-11T08:51:15.490Z,2233.12
2023-04-11T08:52:15.507Z,2413.12
2023-04-11T08:53:15.482Z,2508.75
2023-04-11T08:54:15.474Z,2598.75
2023-04-11T08:55:15.464Z,2542.50
2023-04-11T08:56:15.450Z,3121.88
2023-04-11T08:57:15.466Z,3375.00
2023-04-11T08:58:15.454Z,3701.25
2023-04-11T08:59:15.427Z,641.25
2023-04-11T09:00:15.453Z,3701.25
2023-04-11T09:01:15.424Z,3645.00
2023-04-11T09:02:15.545Z,2818.12
2023-04-11T09:03:15.491Z,2688.75
2023-04-11T09:04:15.408Z,2356.88
2023-04-11T09:05:15.378Z,815.62
2023-04-11T09:06:15.376Z,1541.25
2023-04-11T09:07:15.390Z,613.12
2023-04-11T09:08:15.359Z,781.88
2023-04-11T09:09:15.350Z,787.50
2023-04-11T09:10:15.348Z,911.25
2023-04-11T09:11:15.331Z,478.12
2023-04-11T09:12:15.353Z,478.12
2023-04-11T09:13:15.320Z,663.75
2023-04-11T09:14:15.319Z,618.75
2023-04-11T09:15:15.312Z,736.88
2023-04-11T09:16:15.472Z,601.88
2023-04-11T09:17:15.316Z,444.38
2023-04-11T09:18:15.290Z,354.38
2023-04-11T09:19:15.283Z,315.00
2023-04-11T09:20:15.270Z,354.38
2023-04-11T09:21:15.286Z,393.75
2023-04-11T09:22:15.278Z,410.62
2023-04-11T09:23:15.248Z,410.62
2023-04-11T09:24:15.241Z,731.25
2023-04-11T09:25:15.238Z,675.00
2023-04-11T09:26:15.223Z,506.25
2023-04-11T09:27:15.244Z,556.88
2023-04-11T09:28:15.209Z,855.00
2023-04-11T09:29:15.202Z,866.25
2023-04-11T09:30:15.195Z,978.75
2023-04-11T09:31:15.223Z,793.12
2023-04-11T09:32:15.210Z,545.62
2023-04-11T09:33:15.170Z,624.38
2023-04-11T09:34:15.157Z,601.88
2023-04-11T09:35:15.168Z,855.00
2023-04-11T09:36:15.145Z,933.75
2023-04-11T09:37:15.183Z,1006.88
2023-04-11T09:38:15.131Z,618.75
2023-04-11T09:39:15.121Z,630.00
2023-04-11T09:40:15.125Z,708.75
2023-04-11T09:41:15.109Z,607.50
2023-04-11T09:42:15.102Z,528.75
2023-04-11T09:43:15.113Z,866.25
2023-04-11T09:44:15.099Z,433.12
2023-04-11T09:45:16.078Z,658.12
2023-04-11T09:46:15.133Z,478.12
2023-04-11T09:47:15.079Z,776.25
2023-04-11T09:48:15.092Z,500.62
2023-04-11T09:49:15.048Z,708.75
2023-04-11T09:50:15.037Z,489.38
2023-04-11T09:51:27.650Z,646.88
2023-04-11T09:52:17.026Z,596.25
2023-04-11T09:53:15.046Z,585.00
2023-04-11T09:54:15.011Z,601.88
2023-04-11T09:55:15.044Z,579.38
2023-04-11T09:56:14.994Z,590.62
2023-04-11T09:57:14.997Z,427.50
2023-04-11T09:58:14.998Z,534.38
2023-04-11T09:59:14.975Z,427.50
2023-04-11T10:00:14.959Z,433.12
2023-04-11T10:01:14.950Z,421.88
2023-04-11T10:02:14.978Z,562.50
2023-04-11T10:03:15.067Z,551.25
2023-04-11T10:04:14.969Z,534.38
2023-04-11T10:05:14.912Z,534.38
2023-04-11T10:06:14.937Z,528.75
2023-04-11T10:07:14.912Z,393.75
2023-04-11T10:08:14.949Z,500.62
2023-04-11T10:09:14.897Z,393.75
2023-04-11T10:10:14.875Z,506.25
2023-04-11T10:11:14.870Z,556.88
2023-04-11T10:12:14.863Z,540.00
2023-04-11T10:13:14.881Z,534.38
2023-04-11T10:14:14.845Z,438.75
2023-04-11T10:15:14.853Z,438.75
2023-04-11T10:16:14.965Z,551.25
2023-04-11T10:17:16.329Z,551.25
2023-04-11T10:18:14.847Z,511.88
2023-04-11T10:19:14.817Z,500.62
2023-04-11T10:20:14.797Z,495.00
2023-04-11T10:21:14.798Z,500.62
2023-04-11T10:22:14.781Z,511.88
2023-04-11T10:23:14.801Z,506.25
2023-04-11T10:24:17.144Z,495.00
2023-04-11T10:25:15.756Z,478.12
2023-04-11T10:26:14.750Z,478.12
2023-04-11T10:27:14.753Z,478.12
2023-04-11T10:28:14.763Z,489.38
2023-04-11T10:29:14.729Z,506.25
2023-04-11T10:30:14.724Z,500.62
2023-04-11T10:31:14.776Z,483.75
2023-04-11T10:32:14.706Z,478.12
2023-04-11T10:33:15.572Z,472.50
2023-04-11T10:34:14.697Z,343.12
2023-04-11T10:35:14.683Z,444.38
2023-04-11T10:36:14.681Z,326.25
2023-04-11T10:37:14.670Z,444.38
2023-04-11T10:38:14.696Z,455.62
2023-04-11T10:39:14.657Z,461.25
2023-04-11T10:40:14.656Z,483.75
2023-04-11T10:41:14.658Z,511.88
2023-04-11T10:42:14.635Z,528.75
2023-04-11T10:43:14.655Z,427.50
2023-04-11T10:44:14.619Z,556.88
2023-04-11T10:45:14.612Z,573.75
2023-04-11T10:46:14.636Z,568.12
2023-04-11T10:47:15.642Z,556.88
2023-04-11T10:48:14.612Z,551.25
2023-04-11T10:49:14.588Z,545.62
2023-04-11T10:50:14.572Z,551.25
2023-04-11T10:51:14.562Z,545.62
2023-04-11T10:52:14.559Z,545.62
2023-04-11T10:53:14.554Z,534.38
2023-04-11T10:54:14.591Z,523.12
2023-04-11T10:55:14.535Z,511.88
2023-04-11T10:56:15.561Z,495.00
2023-04-11T10:57:14.564Z,495.00
2023-04-11T10:58:14.505Z,495.00
2023-04-11T10:59:14.536Z,495.00
2023-04-11T11:00:14.502Z,517.50
2023-04-11T11:01:25.704Z,517.50
2023-04-11T11:02:16.544Z,500.62
2023-04-11T11:03:14.679Z,489.38
2023-04-11T11:04:14.731Z,416.25
2023-04-11T11:05:14.451Z,523.12
2023-04-11T11:06:14.454Z,450.00
2023-04-11T11:07:14.449Z,511.88
2023-04-11T11:08:14.437Z,500.62
2023-04-11T11:09:14.449Z,489.38
2023-04-11T11:10:14.414Z,489.38
2023-04-11T11:11:14.409Z,500.62
2023-04-11T11:12:14.397Z,540.00
2023-04-11T11:13:14.388Z,568.12
2023-04-11T11:14:14.406Z,573.75
2023-04-11T11:15:14.372Z,573.75
2023-04-11T11:16:14.380Z,590.62
2023-04-11T11:17:14.358Z,596.25
2023-04-11T11:18:14.352Z,613.12
2023-04-11T11:19:14.366Z,579.38
2023-04-11T11:20:14.336Z,545.62
2023-04-11T11:21:20.582Z,523.12
2023-04-11T11:22:15.354Z,528.75
2023-04-11T11:23:14.319Z,528.75
2023-04-11T11:24:14.332Z,517.50
2023-04-11T11:25:14.303Z,500.62
2023-04-11T11:26:14.295Z,506.25
2023-04-11T11:27:14.285Z,534.38
2023-04-11T11:28:14.272Z,416.25
2023-04-11T11:29:14.287Z,410.62
2023-04-11T11:30:14.259Z,405.00
2023-04-11T11:31:14.246Z,540.00
2023-04-11T11:32:14.245Z,562.50
2023-04-11T11:33:14.240Z,562.50
2023-04-11T11:34:23.737Z,528.75
2023-04-11T11:35:16.239Z,506.25
2023-04-11T11:36:14.209Z,495.00
2023-04-11T11:37:14.194Z,489.38
2023-04-11T11:38:14.189Z,472.50
2023-04-11T11:39:14.222Z,472.50
2023-04-11T11:40:14.212Z,472.50
2023-04-11T11:41:14.173Z,472.50
2023-04-11T11:42:14.156Z,461.25
2023-04-11T11:43:14.164Z,489.38
2023-04-11T11:44:14.188Z,393.75
2023-04-11T11:45:14.203Z,354.38
2023-04-11T11:46:14.309Z,472.50
2023-04-11T11:47:14.123Z,343.12
2023-04-11T11:48:14.109Z,343.12
2023-04-11T11:49:14.143Z,348.75
2023-04-11T11:50:14.102Z,337.50
2023-04-11T11:51:14.100Z,466.88
2023-04-11T11:52:14.161Z,483.75
2023-04-11T11:53:14.155Z,483.75
2023-04-11T11:54:14.105Z,489.38
2023-04-11T11:55:14.116Z,495.00
2023-04-11T11:56:14.163Z,489.38
2023-04-11T11:57:14.047Z,500.62
2023-04-11T11:58:14.050Z,506.25
2023-04-11T11:59:14.113Z,405.00
2023-04-11T12:00:14.054Z,438.75
2023-04-11T12:02:14.099Z,495.00
2023-04-11T12:03:14.150Z,478.12
2023-04-11T12:04:14.170Z,472.50
2023-04-11T12:05:14.078Z,483.75
2023-04-11T12:06:13.987Z,478.12
2023-04-11T12:07:13.995Z,466.88
2023-04-11T12:08:13.970Z,343.12
2023-04-11T12:09:13.970Z,326.25
2023-04-11T12:10:13.991Z,315.00
2023-04-11T12:11:13.954Z,433.12
2023-04-11T12:12:13.936Z,450.00
2023-04-11T12:13:13.945Z,461.25
2023-04-11T12:14:13.938Z,455.62
2023-04-11T12:15:13.960Z,483.75
2023-04-11T12:16:14.000Z,489.38
2023-04-11T12:17:13.898Z,495.00
2023-04-11T12:18:13.932Z,495.00
2023-04-11T12:19:13.881Z,483.75
2023-04-11T12:20:13.899Z,478.12
2023-04-11T12:21:13.864Z,472.50
2023-04-11T12:22:13.863Z,466.88
2023-04-11T12:23:13.852Z,461.25
2023-04-11T12:24:13.840Z,455.62
2023-04-11T12:25:13.861Z,450.00
2023-04-11T12:26:13.850Z,315.00
2023-04-11T12:27:13.821Z,303.75
2023-04-11T12:28:13.885Z,303.75
2023-04-11T12:29:13.794Z,315.00
2023-04-11T12:30:14.938Z,393.75
2023-04-11T12:31:13.852Z,388.12
2023-04-11T12:32:13.781Z,382.50
2023-04-11T12:33:13.776Z,416.25
2023-04-11T12:34:13.774Z,399.38
2023-04-11T12:35:13.790Z,399.38
2023-04-11T12:36:13.747Z,466.88
2023-04-11T12:37:13.742Z,495.00
2023-04-11T12:38:16.626Z,461.25
2023-04-11T12:39:13.721Z,511.88
2023-04-11T12:40:13.793Z,528.75
2023-04-11T12:41:30.277Z,517.50
2023-04-11T12:42:18.616Z,517.50
2023-04-11T12:43:14.702Z,517.50
2023-04-11T12:44:13.687Z,405.00
2023-04-11T12:45:13.714Z,354.38